Terminal Aerodrome Forecast
Issued by NWS Cleveland, OH

Home | Current Version | Previous Version | Graphics & Text | Print | Product List | Glossary On
Versions: 1 2 3 4 5 6 7 8 9 10 11 12 13 14
000
FTUS41 KCLE 200250 AAA
TAFTOL
TAF AMD
KTOL 200250Z 2003/2024 23002KT 6SM BR FEW050 BKN200
      TEMPO 2003/2007 4SM BR
     FM200700 00000KT 4SM BR SCT100 OVC200
     FM201300 22008KT P6SM VCSH BKN040
     FM202000 24011KT P6SM VCTS BKN040CB=

USA.gov is the U.S. government's official web portal to all federal, state and local government web resources and services.